Flight Track Log - Related Links

Times and Time Zones

All times are in EDT time to prevent confusion due to time zone crossing. See the RPA3228 flight status page for this flight to view local times or setup timezone preferences in your user account.

Time Position Orientation Groundspeed Altitude Reporting Facility
EDT Latitude Longitude Course Direction KTS MPH feet Rate Location/Type
Wed 07:44:02 AM 41.5561 -93.6708 86° East 150 173 1,800  Level Minneapolis Center
Wed 07:45:04 AM 41.5822 -93.7347 299° West 181 208 3,800 2,098 Climbing Minneapolis Center
Wed 07:46:00 AM 41.4397 -93.3535 82° East  Level FlightAware Approximate
Wed 07:46:05 AM 41.6314 -93.6992 28° Northeast 259 298 6,100  Level Minneapolis Center
Wed 07:47:00 AM 41.4500 -93.2146 90° East  Level FlightAware Approximate
Wed 07:47:06 AM 41.6267 -93.5925 93° East 288 331 8,900  Level Minneapolis Center
Wed 07:48:00 AM 41.4500 -93.0748 90° East  Level FlightAware Approximate
Wed 07:48:07 AM 41.6214 -93.4747 93° East 312 359 11,200  Level Minneapolis Center
Wed 07:49:00 AM 41.4540 -92.9352 86° East  Level FlightAware Approximate
Wed 07:49:20 AM 41.6153 -93.3431 94° East 349 402 13,600  Level Minneapolis Center
Wed 07:50:21 AM 41.6072 -93.1739 94° East 370 426 16,900 2,754 Climbing Minneapolis Center
Wed 07:51:22 AM 41.6008 -93.0522 94° East 373 429 19,200 1,967 Climbing Minneapolis Center
Wed 07:52:23 AM 41.5944 -92.9364 94° East 384 442 20,900 2,146 Climbing Minneapolis Center
Wed 07:53:25 AM 41.5836 -92.7297 94° East 397 457 23,600 2,244 Climbing Minneapolis Center
Wed 07:54:26 AM 41.5761 -92.5764 94° East 407 468 25,500 1,721 Climbing Minneapolis Center
Wed 07:55:27 AM 41.5672 -92.4192 94° East 420 483 27,100 1,475 Climbing Minneapolis Center
Wed 07:56:28 AM 41.5589 -92.2594 94° East 428 493 28,500 1,180 Climbing Minneapolis Center
Wed 07:57:29 AM 41.5511 -92.1311 95° East 433 498 29,500 1,105 Climbing Minneapolis Center
Wed 07:57:44 AM 41.5467 -92.0706 96° East 439 505 29,900 1,263 Climbing Chicago Center
Wed 07:58:45 AM 41.5350 -91.8719 94° East 450 518 31,100 1,122 Climbing Chicago Center
Wed 07:59:47 AM 41.5250 -91.7044 95° East 457 526 32,200 919 Climbing Chicago Center
Wed 08:00:49 AM 41.5203 -91.5344 92° East 462 532 33,000 390 Climbing Chicago Center
Wed 08:01:50 AM 41.5250 -91.3639 88° East 466 536 33,000  Level Chicago Center
Wed 08:02:52 AM 41.5281 -91.1911 89° East 471 542 33,000  Level Chicago Center
Wed 08:03:54 AM 41.5314 -90.9847 89° East 469 540 33,000  Level Chicago Center
Wed 08:04:55 AM 41.5339 -90.8108 89° East 474 545 33,000  Level Chicago Center
Wed 08:05:57 AM 41.5364 -90.6389 89° East 471 542 33,000  Level Chicago Center
Wed 08:06:59 AM 41.5389 -90.4689 89° East 474 545 33,000  Level Chicago Center
Wed 08:08:01 AM 41.5414 -90.2942 89° East 472 543 33,000  Level Chicago Center
Wed 08:09:03 AM 41.5433 -90.0847 89° East 470 541 33,000  Level Chicago Center
Wed 08:10:04 AM 41.5467 -89.9086 88° East 472 543 33,000  Level Chicago Center
Wed 08:11:06 AM 41.5478 -89.7311 89° East 475 547 33,000  Level Chicago Center
Wed 08:12:08 AM 41.5472 -89.5544 90° East 474 545 33,000  Level Chicago Center
Wed 08:13:10 AM 41.5481 -89.3883 90° East 474 545 33,000  Level Chicago Center
Wed 08:14:12 AM 41.5483 -89.1769 90° East 478 550 33,000  Level Chicago Center
Wed 08:15:14 AM 41.5481 -89.0019 90° East 475 547 33,000  Level Chicago Center
Wed 08:16:16 AM 41.5478 -88.8253 90° East 478 550 33,000  Level Chicago Center
Wed 08:17:17 AM 41.5492 -88.6481 89° East 479 551 33,000  Level Chicago Center
Wed 08:18:19 AM 41.5478 -88.4717 91° East 479 551 33,000  Level Chicago Center
Wed 08:19:21 AM 41.5394 -88.2950 94° East 480 552 33,000 339 Level Chicago Center
Wed 08:20:23 AM 41.5022 -88.1042 105° East 482 555 33,700 484 Climbing Chicago Center
Wed 08:21:25 AM 41.4639 -87.9328 107° East 484 557 34,000 145 Climbing Chicago Center
Wed 08:22:27 AM 41.4211 -87.7383 106° East 474 545 34,000 339 Level Chicago Center
Wed 08:23:29 AM 41.3836 -87.5692 106° East 477 549 34,700 484 Climbing Chicago Center
Wed 08:24:31 AM 41.3464 -87.4014 106° East 476 548 35,000 145 Climbing Chicago Center
Wed 08:25:33 AM 41.3083 -87.2331 107° East 477 549 35,000  Level Chicago Center
Wed 08:26:35 AM 41.2700 -87.0650 107° East 478 550 35,000  Level Chicago Center
Wed 08:27:37 AM 41.2325 -86.8969 106° East 478 550 35,000  Level Chicago Center
Wed 08:28:39 AM 41.1894 -86.7072 107° East 477 549 35,000  Level Chicago Center
Wed 08:29:41 AM 41.1497 -86.5397 107° East 480 552 35,000  Level Chicago Center
Wed 08:30:43 AM 41.1100 -86.3717 107° East 479 551 35,000  Level Chicago Center
Wed 08:31:45 AM 41.0719 -86.2056 107° East 478 550 35,000  Level Chicago Center
Wed 08:32:47 AM 41.0250 -86.0050 107° East 480 552 35,000  Level Chicago Center
Wed 08:33:49 AM 40.9844 -85.8369 108° East 481 554 35,000  Level Chicago Center
Wed 08:34:51 AM 40.9439 -85.6719 108° East 479 551 35,000  Level Chicago Center
Wed 08:35:53 AM 40.9039 -85.5047 108° East 482 555 35,000  Level Chicago Center
Wed 08:36:54 AM 40.8625 -85.3389 108° East 481 554 35,000  Level Chicago Center
Wed 08:37:56 AM 40.8136 -85.1331 107° East 490 564 35,000  Level Chicago Center
Wed 08:38:58 AM 40.7728 -84.9667 108° East 484 557 35,000  Level Chicago Center
Wed 08:40:00 AM 40.7311 -84.8022 108° East 478 550 35,000  Level Chicago Center
Wed 08:41:02 AM 40.6897 -84.6358 108° East 479 551 35,000  Level Chicago Center
Wed 08:42:04 AM 40.6478 -84.4700 108° East 480 552 35,000  Level Chicago Center
Wed 08:43:06 AM 40.6053 -84.3033 109° East 481 554 35,000  Level Chicago Center
Wed 08:44:08 AM 40.5547 -84.1039 108° East 481 554 35,000  Level Chicago Center
Wed 08:45:12 AM 40.5119 -83.9425 109° East 481 554 35,000  Level Indianapolis Center
Wed 08:46:14 AM 40.4678 -83.7719 109° East 487 560 35,000  Level Indianapolis Center
Wed 08:47:16 AM 40.4239 -83.6039 109° East 482 555 35,000  Level Indianapolis Center
Wed 08:48:18 AM 40.3792 -83.4342 109° East 484 557 35,000  Level Indianapolis Center
Wed 08:49:19 AM 40.3267 -83.2381 109° East 483 556 35,000  Level Indianapolis Center
Wed 08:50:21 AM 40.2817 -83.0692 109° East 484 557 35,000  Level Indianapolis Center
Wed 08:51:23 AM 40.2358 -82.9014 110° East 484 557 35,000  Level Indianapolis Center
Wed 08:52:25 AM 40.1906 -82.7308 109° East 489 563 35,000  Level Indianapolis Center
Wed 08:53:27 AM 40.1444 -82.5636 110° East 486 559 35,000  Level Indianapolis Center
Wed 08:54:29 AM 40.0950 -82.3969 111° Southeast 485 558 35,000  Level Indianapolis Center
Wed 08:55:31 AM 40.0444 -82.2292 111° Southeast 491 565 35,000  Level Indianapolis Center
Wed 08:56:33 AM 39.9950 -82.0633 111° Southeast 488 562 35,000  Level Indianapolis Center
Wed 08:57:35 AM 39.9444 -81.8958 111° Southeast 490 564 35,000  Level Indianapolis Center
Wed 08:58:37 AM 39.8856 -81.7014 111° Southeast 489 563 35,000  Level Indianapolis Center
Wed 08:59:39 AM 39.8344 -81.5350 112° Southeast 490 564 35,000  Level Indianapolis Center
Wed 09:00:33 AM 39.7953 -81.4206 114° Southeast 498 573 35,000  Level Cleveland Center
Wed 09:01:33 AM 39.7464 -81.2392 109° East 487 560 35,000  Level Cleveland Center
Wed 09:02:33 AM 39.6889 -81.0550 112° Southeast 492 566 35,000  Level Cleveland Center
Wed 09:03:33 AM 39.6372 -80.8903 112° Southeast 492 566 35,000  Level Cleveland Center
Wed 09:04:33 AM 39.5856 -80.7258 112° Southeast 492 566 35,000  Level Cleveland Center
Wed 09:04:49 AM 39.5714 -80.6858 115° Southeast 492 566 35,000  Level Indianapolis Center
Wed 09:06:53 AM 39.4722 -80.3744 112° Southeast 496 571 35,000  Level Indianapolis Center
Wed 09:07:59 AM 39.4078 -80.1689 112° Southeast 502 578 35,000 -774 Level Washington Center
Wed 09:08:57 AM 39.3578 -80.0072 112° Southeast 502 578 33,400 -2,034 Descending Washington Center
Wed 09:09:57 AM 39.3072 -79.8486 112° Southeast 491 565 31,000 -1,200 Descending Washington Center
Wed 09:10:57 AM 39.2858 -79.6783 99° East 463 533 31,000  Level Washington Center
Wed 09:11:58 AM 39.2708 -79.5058 96° East 469 540 31,000  Level Washington Center
Wed 09:12:59 AM 39.2575 -79.3336 96° East 474 545 31,000 -843 Level Washington Center
Wed 09:13:59 AM 39.2414 -79.1772 98° East 481 554 29,300 -2,186 Descending Washington Center
Wed 09:14:57 AM 39.2256 -79.0106 97° East 487 560 26,700 -2,521 Descending Washington Center
Wed 09:15:58 AM 39.2111 -78.8489 97° East 476 548 24,300 -2,370 Descending Washington Center
Wed 09:16:56 AM 39.1967 -78.6903 97° East 453 521 22,000 -2,319 Descending Washington Center
Wed 09:17:57 AM 39.1817 -78.5369 97° East 439 505 19,700 -2,213 Descending Washington Center
Wed 09:18:58 AM 39.1664 -78.3919 98° East 421 484 17,500 -1,785 Descending Washington Center
Wed 09:19:58 AM 39.1361 -78.2517 106° East 411 473 16,100 -1,240 Descending Washington Center
Wed 09:20:59 AM 39.1017 -78.1167 108° East 406 467 15,000 -1,140 Descending Washington Center
Wed 09:21:59 AM 39.0669 -77.9817 108° East 396 456 13,800 -1,282 Descending Washington Center
Wed 09:22:56 AM 39.0339 -77.8522 108° East 385 443 12,500 -1,424 Descending Washington Center
Wed 09:23:57 AM 38.9989 -77.7125 108° East 372 428 11,000 -1,091 Descending Washington Center
Wed 09:24:57 AM 38.9714 -77.6100 109° East 354 407 10,300 -1,161 Descending Washington Center
Wed 09:25:30 AM 38.9500 -77.5333 110° East 332 382 9,200 -2,065 Descending Potomac TRACON
Wed 09:26:30 AM 38.9667 -77.4333 78° East 287 330 7,100 -2,100 Descending Potomac TRACON
Wed 09:27:30 AM 39.0000 -77.3500 63° Northeast 279 321 5,000 -1,350 Descending Potomac TRACON
Wed 09:28:30 AM 38.9833 -77.2667 104° East 244 281 4,400 -826 Descending Potomac TRACON
Wed 09:29:19 AM 38.9833 -77.2000 90° East 231 266 3,500 -991 Descending Potomac TRACON
Wed 09:30:19 AM 38.9500 -77.1333 123° Southeast 207 238 2,600 -900 Descending Potomac TRACON

Login

Don't have an account? Register now (free) for customized features, flight alerts, and more!